createdAt,value
2017-07-03T00:00:12.110Z,55.00
2017-07-03T00:02:38.625Z,55.80
2017-07-03T00:05:05.163Z,55.50
2017-07-03T00:07:31.707Z,55.60
2017-07-03T00:09:58.232Z,55.70
2017-07-03T00:12:24.714Z,56.10
2017-07-03T00:14:51.231Z,56.60
2017-07-03T00:17:17.734Z,56.80
2017-07-03T00:19:44.274Z,57.20
2017-07-03T00:22:10.787Z,56.70
2017-07-03T00:24:37.286Z,56.70
2017-07-03T00:27:03.783Z,57.40
2017-07-03T00:29:31.012Z,57.60
2017-07-03T00:31:58.226Z,57.70
2017-07-03T00:34:24.717Z,57.70
2017-07-03T00:36:51.218Z,58.20
2017-07-03T00:39:17.718Z,58.20
2017-07-03T00:41:44.240Z,58.20
2017-07-03T00:44:10.751Z,59.00
2017-07-03T00:46:37.284Z,59.10
2017-07-03T00:49:03.761Z,59.60
2017-07-03T00:51:30.273Z,59.90
2017-07-03T00:53:56.792Z,61.90
2017-07-03T00:56:23.262Z,60.00
2017-07-03T00:58:49.782Z,59.50
2017-07-03T01:01:16.316Z,61.00
2017-07-03T01:03:42.825Z,60.60
2017-07-03T01:06:09.358Z,60.40
2017-07-03T01:08:35.822Z,61.30
2017-07-03T01:11:02.202Z,60.60
2017-07-03T01:13:28.721Z,60.40
2017-07-03T01:15:55.968Z,61.30
2017-07-03T01:18:23.194Z,62.00
2017-07-03T01:20:49.703Z,61.80
2017-07-03T01:23:16.209Z,62.80
2017-07-03T01:25:42.725Z,62.80
2017-07-03T01:28:09.257Z,61.10
2017-07-03T01:30:35.777Z,61.20
2017-07-03T01:33:03.066Z,61.80
2017-07-03T01:35:29.724Z,61.70
2017-07-03T01:37:56.218Z,62.50
2017-07-03T01:40:22.766Z,63.50
2017-07-03T01:42:49.327Z,61.60
2017-07-03T01:45:16.577Z,62.50
2017-07-03T01:47:43.092Z,62.50
2017-07-03T01:50:09.606Z,61.60
2017-07-03T01:52:36.106Z,61.70
2017-07-03T01:55:02.636Z,62.90
2017-07-03T01:57:29.138Z,63.70
2017-07-03T01:59:55.683Z,62.30
2017-07-03T02:02:22.193Z,62.40
2017-07-03T02:04:48.743Z,62.90
2017-07-03T02:07:15.261Z,62.40
2017-07-03T02:09:41.797Z,62.50
2017-07-03T02:12:08.336Z,62.40
2017-07-03T02:14:34.862Z,63.10
2017-07-03T02:17:02.111Z,62.20
2017-07-03T02:19:29.350Z,62.20
2017-07-03T02:21:55.782Z,62.00
2017-07-03T02:24:22.307Z,62.20
2017-07-03T02:26:48.805Z,63.30
2017-07-03T02:29:15.334Z,62.70
2017-07-03T02:31:41.854Z,62.90
2017-07-03T02:34:08.405Z,63.90
2017-07-03T02:36:34.922Z,63.30
2017-07-03T02:39:01.450Z,62.80
2017-07-03T02:41:27.989Z,63.50
2017-07-03T02:43:54.526Z,62.50
2017-07-03T02:46:21.063Z,62.80
2017-07-03T02:48:47.565Z,63.30
2017-07-03T02:51:14.103Z,63.70
2017-07-03T02:53:41.330Z,62.60
2017-07-03T02:56:07.862Z,63.10
2017-07-03T02:58:34.358Z,63.20
2017-07-03T03:01:00.898Z,63.60
2017-07-03T03:03:27.399Z,63.10
2017-07-03T03:05:53.950Z,63.10
2017-07-03T03:08:20.449Z,63.00
2017-07-03T03:10:47.698Z,63.20
2017-07-03T03:13:14.950Z,63.00
2017-07-03T03:15:41.465Z,62.90
2017-07-03T03:18:08.006Z,63.10
2017-07-03T03:20:34.527Z,63.00
2017-07-03T03:23:01.815Z,63.50
2017-07-03T03:25:29.191Z,63.40
2017-07-03T03:27:55.648Z,63.40
2017-07-03T03:30:21.951Z,63.50
2017-07-03T03:32:48.477Z,63.60
2017-07-03T03:35:14.975Z,63.80
2017-07-03T03:37:42.253Z,64.30
2017-07-03T03:40:08.554Z,64.20
2017-07-03T03:42:35.806Z,63.60
2017-07-03T03:45:02.853Z,63.80
2017-07-03T03:47:29.149Z,63.70
2017-07-03T03:49:55.442Z,64.70
2017-07-03T03:52:21.731Z,63.80
2017-07-03T03:54:48.245Z,63.70
2017-07-03T03:57:14.774Z,64.20
2017-07-03T03:59:41.278Z,63.50
2017-07-03T04:02:07.780Z,63.90
2017-07-03T04:04:34.291Z,63.30
2017-07-03T04:07:00.797Z,63.70
2017-07-03T04:09:27.309Z,63.70
2017-07-03T04:11:53.846Z,64.10
2017-07-03T04:14:20.351Z,64.20
2017-07-03T04:16:46.867Z,64.60
2017-07-03T04:19:14.134Z,65.40
2017-07-03T04:21:41.374Z,65.50
2017-07-03T04:24:07.850Z,65.50
2017-07-03T04:26:34.334Z,64.40
2017-07-03T04:29:00.866Z,64.80
2017-07-03T04:31:27.347Z,64.60
2017-07-03T04:33:53.887Z,65.10
2017-07-03T04:36:20.388Z,65.10
2017-07-03T04:38:47.627Z,62.50
2017-07-03T04:41:14.874Z,62.70
2017-07-03T04:43:41.169Z,62.70
2017-07-03T04:46:07.697Z,62.40
2017-07-03T04:48:34.226Z,61.70
2017-07-03T04:51:00.768Z,61.40
2017-07-03T04:53:27.301Z,58.40
2017-07-03T04:55:53.913Z,54.00
2017-07-03T04:58:20.417Z,51.10
2017-07-03T05:00:47.662Z,41.20
2017-07-03T05:03:14.186Z,41.20
2017-07-03T05:05:40.670Z,40.80
2017-07-03T05:08:07.290Z,39.00
2017-07-03T05:10:34.610Z,32.40
2017-07-03T05:13:01.244Z,32.40
2017-07-03T05:15:27.732Z,30.50
2017-07-03T05:17:54.235Z,29.70
2017-07-03T05:20:20.744Z,29.70
2017-07-03T05:22:47.243Z,29.50
2017-07-03T05:25:13.734Z,29.20
2017-07-03T05:27:40.250Z,29.20
2017-07-03T05:30:06.728Z,28.90
2017-07-03T05:32:33.351Z,28.50
2017-07-03T05:34:59.859Z,28.80
2017-07-03T05:37:27.125Z,30.60
2017-07-03T05:39:54.366Z,32.30
2017-07-03T05:42:20.936Z,32.40
2017-07-03T05:44:47.472Z,32.70
2017-07-03T05:47:13.969Z,33.80
2017-07-03T05:49:41.226Z,36.80
2017-07-03T05:52:07.737Z,36.70
2017-07-03T05:54:34.997Z,41.00
2017-07-03T05:57:02.242Z,42.50
2017-07-03T05:59:29.506Z,45.50
2017-07-03T06:01:55.836Z,45.30
2017-07-03T06:04:22.353Z,45.60
2017-07-03T06:06:48.858Z,46.70
2017-07-03T06:09:15.409Z,47.80
2017-07-03T06:11:41.981Z,47.90
2017-07-03T06:14:09.238Z,49.20
2017-07-03T06:16:36.511Z,48.90
2017-07-03T06:19:03.038Z,48.70
2017-07-03T06:21:29.547Z,48.40
2017-07-03T06:23:56.114Z,50.20
2017-07-03T06:26:22.614Z,49.90
2017-07-03T06:28:49.129Z,50.10
2017-07-03T06:31:15.645Z,50.20
2017-07-03T06:33:42.186Z,50.50
2017-07-03T06:36:08.758Z,49.70
2017-07-03T06:38:35.282Z,51.00
2017-07-03T06:41:01.785Z,50.80
2017-07-03T06:43:28.292Z,49.70
2017-07-03T06:45:54.857Z,50.10
2017-07-03T06:48:22.234Z,50.20
2017-07-03T06:50:48.786Z,49.30
2017-07-03T06:53:15.282Z,48.20
2017-07-03T06:55:41.801Z,47.90
2017-07-03T06:58:08.286Z,46.50
2017-07-03T07:00:34.818Z,47.00
2017-07-03T07:03:01.307Z,45.50
2017-07-03T07:05:27.789Z,46.60
2017-07-03T07:07:54.317Z,46.50
2017-07-03T07:10:21.555Z,47.50
2017-07-03T07:12:48.081Z,47.50
2017-07-03T07:15:14.635Z,47.70
2017-07-03T07:17:41.140Z,47.20
2017-07-03T07:20:07.670Z,47.40
2017-07-03T07:22:34.162Z,47.70
2017-07-03T07:25:00.755Z,48.40
2017-07-03T07:27:27.228Z,46.50
2017-07-03T07:29:53.850Z,47.00
2017-07-03T07:32:20.361Z,45.80
2017-07-03T07:34:46.857Z,47.00
2017-07-03T07:37:13.332Z,45.60
2017-07-03T07:39:39.850Z,45.10
2017-07-03T07:42:07.123Z,45.80
2017-07-03T07:44:34.364Z,45.00
2017-07-03T07:47:01.597Z,45.30
2017-07-03T07:49:28.190Z,45.30
2017-07-03T07:51:54.698Z,43.60
2017-07-03T07:54:21.235Z,43.80
2017-07-03T07:56:47.737Z,43.70
2017-07-03T07:59:14.340Z,44.30
2017-07-03T08:01:40.875Z,44.30
2017-07-03T08:04:07.354Z,44.10
2017-07-03T08:06:34.612Z,44.40
2017-07-03T08:09:01.094Z,44.10
2017-07-03T08:11:27.586Z,45.00
2017-07-03T08:13:54.163Z,44.90
2017-07-03T08:16:20.850Z,44.00
2017-07-03T08:18:47.326Z,45.20
2017-07-03T08:21:13.817Z,45.00
2017-07-03T08:23:40.303Z,43.90
2017-07-03T08:26:06.813Z,44.80
2017-07-03T08:28:33.298Z,43.40
2017-07-03T08:30:59.811Z,43.50
2017-07-03T08:33:26.324Z,43.30
2017-07-03T08:35:52.899Z,42.10
2017-07-03T08:38:19.401Z,43.80
2017-07-03T08:40:45.965Z,42.70
2017-07-03T08:43:12.507Z,42.00
2017-07-03T08:45:39.836Z,41.20
2017-07-03T08:48:06.383Z,41.10
2017-07-03T08:50:33.634Z,43.70
2017-07-03T08:53:00.152Z,43.30
2017-07-03T08:55:26.654Z,41.80
2017-07-03T08:57:53.174Z,42.00
2017-07-03T09:00:19.709Z,42.20
2017-07-03T09:02:46.224Z,40.40
2017-07-03T09:05:12.772Z,41.60
2017-07-03T09:07:39.307Z,40.30
2017-07-03T09:10:05.828Z,43.40
2017-07-03T09:12:32.346Z,40.30
2017-07-03T09:14:58.894Z,42.10
2017-07-03T09:17:25.436Z,41.40
2017-07-03T09:19:51.956Z,40.40
2017-07-03T09:22:18.515Z,40.40
2017-07-03T09:24:45.083Z,40.70
2017-07-03T09:27:11.639Z,38.60
2017-07-03T09:29:38.153Z,38.30
2017-07-03T09:32:04.661Z,38.10
2017-07-03T09:34:31.186Z,38.10
2017-07-03T09:36:57.722Z,37.40
2017-07-03T09:39:24.160Z,38.50
2017-07-03T09:41:50.682Z,36.70
2017-07-03T09:44:17.193Z,34.40
2017-07-03T09:46:44.486Z,36.00
2017-07-03T09:49:11.003Z,35.90
2017-07-03T09:51:37.606Z,36.70
2017-07-03T09:54:04.109Z,37.60
2017-07-03T09:56:30.635Z,36.00
2017-07-03T09:58:57.156Z,37.80
2017-07-03T10:01:23.740Z,36.70
2017-07-03T10:03:51.011Z,33.90
2017-07-03T10:06:17.580Z,33.90
2017-07-03T10:08:44.035Z,35.40
2017-07-03T10:11:10.605Z,33.80
2017-07-03T10:13:37.869Z,32.60
2017-07-03T10:16:04.376Z,32.60
2017-07-03T10:18:30.864Z,33.20
2017-07-03T10:20:57.430Z,31.60
2017-07-03T10:23:23.956Z,33.70
2017-07-03T10:25:50.483Z,31.80
2017-07-03T10:28:17.025Z,30.80
2017-07-03T10:30:43.566Z,30.00
2017-07-03T10:33:10.066Z,30.40
2017-07-03T10:35:36.599Z,30.00
2017-07-03T10:38:03.126Z,31.30
2017-07-03T10:40:29.651Z,30.10
2017-07-03T10:42:56.944Z,27.60
2017-07-03T10:45:23.492Z,27.60
2017-07-03T10:47:49.990Z,28.80
2017-07-03T10:50:16.490Z,28.40
2017-07-03T10:52:43.874Z,27.90
2017-07-03T10:55:10.381Z,28.00
2017-07-03T10:57:36.944Z,30.20
2017-07-03T11:00:03.502Z,28.10
2017-07-03T11:02:30.062Z,28.60
2017-07-03T11:04:56.607Z,26.30
2017-07-03T11:07:23.148Z,26.20
2017-07-03T11:09:49.691Z,26.90
2017-07-03T11:12:16.947Z,25.50
2017-07-03T11:14:43.458Z,25.40
2017-07-03T11:17:10.720Z,26.40
2017-07-03T11:19:37.251Z,26.30
2017-07-03T11:22:03.797Z,28.20
2017-07-03T11:24:31.085Z,25.10
2017-07-03T11:26:57.662Z,25.10
2017-07-03T11:29:24.936Z,26.30
2017-07-03T11:31:51.477Z,26.10
2017-07-03T11:34:18.012Z,25.30
2017-07-03T11:36:44.535Z,24.90
2017-07-03T11:39:11.790Z,25.80
2017-07-03T11:41:38.292Z,25.10
2017-07-03T11:44:04.871Z,23.60
2017-07-03T11:46:31.402Z,24.70
2017-07-03T11:48:57.991Z,25.80
2017-07-03T11:51:24.535Z,25.10
2017-07-03T11:53:51.111Z,23.50
2017-07-03T11:56:17.620Z,25.00
2017-07-03T11:58:44.183Z,23.10
2017-07-03T12:01:10.721Z,22.80
2017-07-03T12:03:37.269Z,25.00
2017-07-03T12:06:03.785Z,22.60
2017-07-03T12:08:30.298Z,21.90
2017-07-03T12:10:57.520Z,24.50
2017-07-03T12:13:24.059Z,23.80
2017-07-03T12:15:50.626Z,23.50
2017-07-03T12:18:17.118Z,23.80
2017-07-03T12:20:44.379Z,23.50
2017-07-03T12:23:10.919Z,23.40
2017-07-03T12:25:38.169Z,23.30
2017-07-03T12:28:05.430Z,24.90
2017-07-03T12:30:31.939Z,24.90
2017-07-03T12:32:58.487Z,23.50
2017-07-03T12:35:25.886Z,23.70
2017-07-03T12:37:52.395Z,23.70
2017-07-03T12:40:18.954Z,23.60
2017-07-03T12:42:45.436Z,24.00
2017-07-03T12:45:12.137Z,23.20
2017-07-03T12:47:39.468Z,23.70
2017-07-03T12:50:05.758Z,23.60
2017-07-03T12:52:32.049Z,24.30
2017-07-03T12:54:58.351Z,24.60
2017-07-03T12:57:24.970Z,24.80
2017-07-03T12:59:51.469Z,23.50
2017-07-03T13:02:18.004Z,24.80
2017-07-03T13:04:44.559Z,24.40
2017-07-03T13:07:11.819Z,22.50
2017-07-03T13:09:38.107Z,22.40
2017-07-03T13:12:04.463Z,24.10
2017-07-03T13:14:31.521Z,26.40
2017-07-03T13:16:57.802Z,26.30
2017-07-03T13:19:24.115Z,24.60
2017-07-03T13:21:50.438Z,24.60
2017-07-03T13:24:16.984Z,24.80
2017-07-03T13:26:43.487Z,25.10
2017-07-03T13:29:10.003Z,25.60
2017-07-03T13:31:37.241Z,24.50
2017-07-03T13:34:03.736Z,24.40
2017-07-03T13:36:30.246Z,24.70
2017-07-03T13:38:56.746Z,26.10
2017-07-03T13:41:24.002Z,26.60
2017-07-03T13:43:51.254Z,26.60
2017-07-03T13:46:17.790Z,26.10
2017-07-03T13:48:44.327Z,25.20
2017-07-03T13:51:11.643Z,24.50
2017-07-03T13:53:37.968Z,24.50
2017-07-03T13:56:04.486Z,24.80
2017-07-03T13:58:31.034Z,25.50
2017-07-03T14:00:57.662Z,26.00
2017-07-03T14:03:24.173Z,25.50
2017-07-03T14:05:51.157Z,24.80
2017-07-03T14:08:18.225Z,27.80
2017-07-03T14:10:44.527Z,27.20
2017-07-03T14:13:10.822Z,26.10
2017-07-03T14:15:37.118Z,26.00
2017-07-03T14:18:03.418Z,25.40
2017-07-03T14:20:30.998Z,26.10
2017-07-03T14:22:57.349Z,25.80
2017-07-03T14:25:23.842Z,25.30
2017-07-03T14:27:50.341Z,26.70
2017-07-03T14:30:16.827Z,26.60
2017-07-03T14:32:44.075Z,28.70
2017-07-03T14:35:10.566Z,28.40
2017-07-03T14:37:37.066Z,27.50
2017-07-03T14:40:03.599Z,26.60
2017-07-03T14:42:30.130Z,27.00
2017-07-03T14:44:56.633Z,26.80
2017-07-03T14:47:23.211Z,26.40
2017-07-03T14:49:50.462Z,27.00
2017-07-03T14:52:16.967Z,27.00
2017-07-03T14:54:44.329Z,26.80
2017-07-03T14:57:10.833Z,27.60
2017-07-03T14:59:37.420Z,27.80
2017-07-03T15:02:04.032Z,28.20
2017-07-03T15:04:30.586Z,28.30
2017-07-03T15:06:57.813Z,27.80
2017-07-03T15:09:24.414Z,27.80
2017-07-03T15:11:50.902Z,27.40
2017-07-03T15:14:17.443Z,28.70
2017-07-03T15:16:44.687Z,29.00
2017-07-03T15:19:11.200Z,28.40
2017-07-03T15:21:37.705Z,28.40
2017-07-03T15:24:04.308Z,27.80
2017-07-03T15:26:30.829Z,28.50
2017-07-03T15:28:57.382Z,26.70
2017-07-03T15:31:24.028Z,26.10
2017-07-03T15:33:50.631Z,27.50
2017-07-03T15:36:17.956Z,27.20
2017-07-03T15:38:44.487Z,27.90
2017-07-03T15:41:11.098Z,27.20
2017-07-03T15:43:37.633Z,27.40
2017-07-03T15:46:04.198Z,28.00
2017-07-03T15:48:30.729Z,27.80
2017-07-03T15:50:57.270Z,28.00
2017-07-03T15:53:23.767Z,28.60
2017-07-03T15:55:50.282Z,28.40
2017-07-03T15:58:16.803Z,28.90
2017-07-03T16:00:43.348Z,28.90
2017-07-03T16:03:09.833Z,29.10
2017-07-03T16:05:36.349Z,29.50
2017-07-03T16:08:03.623Z,29.90
2017-07-03T16:10:30.899Z,30.80
2017-07-03T16:12:57.414Z,29.60
2017-07-03T16:15:24.572Z,30.00
2017-07-03T16:17:51.136Z,30.10
2017-07-03T16:20:17.681Z,30.20
2017-07-03T16:22:44.279Z,30.90
2017-07-03T16:25:11.542Z,31.20
2017-07-03T16:27:38.035Z,31.20
2017-07-03T16:30:04.538Z,30.60
2017-07-03T16:32:31.043Z,31.50
2017-07-03T16:34:57.615Z,30.30
2017-07-03T16:37:24.057Z,29.60
2017-07-03T16:39:50.557Z,30.30
2017-07-03T16:42:17.088Z,30.00
2017-07-03T16:44:43.588Z,30.00
2017-07-03T16:47:10.915Z,29.20
2017-07-03T16:49:37.454Z,29.20
2017-07-03T16:52:03.990Z,29.10
2017-07-03T16:54:30.477Z,29.00
2017-07-03T16:56:57.006Z,29.20
2017-07-03T16:59:23.671Z,29.50
2017-07-03T17:01:50.197Z,29.50
2017-07-03T17:04:16.711Z,30.00
2017-07-03T17:09:16.326Z,29.60
2017-07-03T17:11:43.570Z,30.00
2017-07-03T17:14:10.711Z,29.70
2017-07-03T17:16:37.193Z,29.60
2017-07-03T17:19:03.699Z,29.60
2017-07-03T17:21:30.193Z,29.20
2017-07-03T17:23:56.793Z,29.80
2017-07-03T17:26:23.383Z,29.70
2017-07-03T17:28:50.639Z,30.00
2017-07-03T17:31:17.195Z,29.90
2017-07-03T17:33:43.808Z,30.50
2017-07-03T17:36:10.309Z,30.50
2017-07-03T17:38:36.834Z,30.60
2017-07-03T17:41:03.361Z,30.50
2017-07-03T17:43:29.877Z,30.70
2017-07-03T17:45:56.362Z,31.20
2017-07-03T17:48:22.891Z,31.80
2017-07-03T17:50:49.398Z,30.90
2017-07-03T17:53:15.907Z,31.00
2017-07-03T17:55:42.515Z,31.40
2017-07-03T17:58:08.954Z,31.80
2017-07-03T18:00:35.530Z,32.60
2017-07-03T18:03:02.087Z,32.40
2017-07-03T18:05:28.639Z,32.80
2017-07-03T18:07:55.188Z,32.90
2017-07-03T18:10:21.668Z,33.70
2017-07-03T18:12:48.212Z,33.70
2017-07-03T18:15:15.901Z,34.60
2017-07-03T18:17:42.441Z,34.60
2017-07-03T18:20:09.694Z,35.00
2017-07-03T18:22:36.304Z,35.00
2017-07-03T18:25:02.905Z,35.10
2017-07-03T18:27:29.442Z,35.10
2017-07-03T18:29:56.037Z,35.10
2017-07-03T18:32:22.558Z,35.70
2017-07-03T18:34:49.072Z,35.10
2017-07-03T18:37:15.666Z,35.10
2017-07-03T18:39:42.230Z,35.60
2017-07-03T18:42:09.872Z,36.10
2017-07-03T18:44:36.390Z,36.10
2017-07-03T18:47:03.006Z,36.30
2017-07-03T18:49:30.379Z,36.80
2017-07-03T18:51:56.886Z,36.80
2017-07-03T18:54:23.475Z,36.70
2017-07-03T18:56:50.063Z,37.40
2017-07-03T18:59:16.624Z,37.40
2017-07-03T19:01:43.243Z,38.00
2017-07-03T19:04:09.876Z,37.40
2017-07-03T19:06:36.402Z,37.60
2017-07-03T19:09:03.078Z,37.70
2017-07-03T19:11:29.578Z,37.60
2017-07-03T19:13:56.846Z,37.90
2017-07-03T19:16:23.345Z,37.90
2017-07-03T19:18:50.635Z,37.60
2017-07-03T19:21:17.258Z,37.70
2017-07-03T19:23:43.806Z,38.20
2017-07-03T19:26:10.285Z,37.60
2017-07-03T19:28:36.785Z,36.90
2017-07-03T19:31:03.283Z,37.30
2017-07-03T19:33:29.862Z,37.90
2017-07-03T19:35:56.368Z,37.50
2017-07-03T19:38:22.994Z,37.60
2017-07-03T19:40:50.042Z,37.50
2017-07-03T19:43:16.674Z,37.00
2017-07-03T19:45:43.991Z,36.10
2017-07-03T19:48:10.599Z,36.00
2017-07-03T19:50:37.140Z,35.70
2017-07-03T19:53:03.671Z,34.70
2017-07-03T19:55:30.315Z,34.60
2017-07-03T19:57:56.883Z,35.70
2017-07-03T20:00:23.471Z,35.80
2017-07-03T20:02:50.021Z,35.20
2017-07-03T20:05:16.587Z,35.40
2017-07-03T20:07:43.115Z,34.60
2017-07-03T20:10:09.639Z,34.90
2017-07-03T20:12:36.163Z,35.70
2017-07-03T20:15:02.767Z,34.70
2017-07-03T20:17:29.328Z,35.00
2017-07-03T20:19:55.925Z,35.70
2017-07-03T20:22:22.524Z,35.50
2017-07-03T20:24:49.076Z,34.70
2017-07-03T20:27:16.310Z,35.30
2017-07-03T20:29:42.860Z,35.30
2017-07-03T20:32:10.069Z,35.10
2017-07-03T20:34:36.562Z,35.00
2017-07-03T20:37:03.054Z,34.80
2017-07-03T20:39:29.572Z,34.90
2017-07-03T20:41:56.086Z,36.10
2017-07-03T20:44:22.578Z,36.30
2017-07-03T20:46:49.074Z,35.60
2017-07-03T20:49:15.634Z,36.00
2017-07-03T20:51:42.138Z,35.60
2017-07-03T20:54:08.694Z,35.40
2017-07-03T20:56:35.946Z,35.20
2017-07-03T20:59:03.293Z,35.10
2017-07-03T21:01:29.699Z,35.20
2017-07-03T21:03:56.412Z,34.80
2017-07-03T21:06:22.899Z,35.70
2017-07-03T21:08:50.180Z,35.70
2017-07-03T21:11:16.703Z,35.60
2017-07-03T21:13:43.953Z,35.40
2017-07-03T21:16:10.226Z,35.40
2017-07-03T21:18:36.510Z,37.10
2017-07-03T21:21:03.522Z,36.20
2017-07-03T21:23:29.798Z,36.20
2017-07-03T21:25:56.064Z,36.20
2017-07-03T21:28:22.615Z,36.70
2017-07-03T21:30:49.125Z,37.40
2017-07-03T21:33:15.695Z,38.00
2017-07-03T21:35:53.478Z,38.00
2017-07-03T21:38:19.820Z,39.00
2017-07-03T21:40:46.088Z,38.60
2017-07-03T21:43:12.459Z,39.00
2017-07-03T21:45:38.730Z,39.50
2017-07-03T21:48:05.820Z,39.90
2017-07-03T21:50:32.099Z,39.80
2017-07-03T21:52:58.384Z,39.80
2017-07-03T21:55:24.680Z,39.70
2017-07-03T21:57:50.987Z,40.10
2017-07-03T22:00:18.389Z,40.00
2017-07-03T22:02:44.760Z,40.20
2017-07-03T22:05:11.127Z,40.60
2017-07-03T22:07:37.418Z,40.80
2017-07-03T22:10:03.741Z,41.00
2017-07-03T22:12:30.042Z,41.40
2017-07-03T22:14:56.326Z,41.10
2017-07-03T22:17:23.370Z,41.50
2017-07-03T22:19:50.415Z,41.60
2017-07-03T22:22:16.716Z,41.40
2017-07-03T22:24:43.047Z,41.40
2017-07-03T22:27:09.485Z,41.50
2017-07-03T22:29:35.851Z,44.20
2017-07-03T22:32:02.239Z,43.90
2017-07-03T22:34:28.571Z,45.20
2017-07-03T22:36:54.927Z,44.90
2017-07-03T22:39:21.226Z,44.80
2017-07-03T22:41:47.514Z,45.40
2017-07-03T22:44:13.922Z,45.30
2017-07-03T22:46:40.972Z,45.40
2017-07-03T22:49:07.270Z,45.30
2017-07-03T22:51:33.559Z,46.40
2017-07-03T22:53:59.865Z,45.40
2017-07-03T22:56:26.151Z,45.60
2017-07-03T22:58:53.250Z,46.10
2017-07-03T23:01:19.536Z,46.00
2017-07-03T23:03:45.803Z,46.10
2017-07-03T23:06:12.077Z,46.70
2017-07-03T23:08:38.343Z,46.20
2017-07-03T23:11:05.353Z,46.00
2017-07-03T23:13:31.640Z,46.00
2017-07-03T23:15:57.931Z,46.30
2017-07-03T23:18:24.951Z,46.00
2017-07-03T23:20:51.218Z,45.90
2017-07-03T23:23:17.511Z,46.10
2017-07-03T23:25:43.786Z,46.10
2017-07-03T23:28:10.063Z,45.90
2017-07-03T23:33:09.374Z,46.00
2017-07-03T23:35:35.633Z,45.40
2017-07-03T23:38:01.913Z,45.60
2017-07-03T23:40:28.202Z,45.80
2017-07-03T23:42:54.479Z,45.90
2017-07-03T23:45:20.762Z,46.40
2017-07-03T23:47:47.017Z,48.30
2017-07-03T23:50:13.305Z,47.40
2017-07-03T23:52:39.636Z,47.10
2017-07-03T23:55:06.649Z,46.20
2017-07-03T23:57:32.989Z,46.10
2017-07-03T23:59:59.271Z,46.50
